createdAt,value
2022-11-10T00:01:10.762Z,13.26
2022-11-10T00:03:42.749Z,12.57
2022-11-10T00:06:14.740Z,13.26
2022-11-10T00:08:46.690Z,13.30
2022-11-10T00:11:18.565Z,13.31
2022-11-10T00:14:08.889Z,13.27
2022-11-10T00:16:59.345Z,13.25
2022-11-10T00:19:35.277Z,13.24
2022-11-10T00:22:07.181Z,13.19
2022-11-10T00:24:39.063Z,13.15
2022-11-10T00:27:12.122Z,13.16
2022-11-10T00:29:44.346Z,13.12
2022-11-10T00:32:16.243Z,13.11
2022-11-10T00:34:48.182Z,13.08
2022-11-10T00:37:20.131Z,13.10
2022-11-10T00:39:51.993Z,13.04
2022-11-10T00:42:23.857Z,12.97
2022-11-10T00:44:55.750Z,13.08
2022-11-10T00:47:27.697Z,13.05
2022-11-10T00:49:59.652Z,13.09
2022-11-10T00:52:31.595Z,13.08
2022-11-10T00:55:03.864Z,13.07
2022-11-10T00:57:35.751Z,13.05
2022-11-10T01:00:09.113Z,13.04
2022-11-10T01:02:41.042Z,13.03
2022-11-10T01:05:13.016Z,13.01
2022-11-10T01:07:44.947Z,13.05
2022-11-10T01:10:17.236Z,13.01
2022-11-10T01:12:49.153Z,13.05
2022-11-10T01:15:27.115Z,13.01
2022-11-10T01:17:59.588Z,13.03
2022-11-10T01:20:34.807Z,12.98
2022-11-10T01:23:06.742Z,12.98
2022-11-10T01:25:38.645Z,12.97
2022-11-10T01:28:10.733Z,12.93
2022-11-10T01:30:42.705Z,12.90
2022-11-10T01:33:14.597Z,12.91
2022-11-10T01:35:46.526Z,12.91
2022-11-10T01:38:18.557Z,12.92
2022-11-10T01:40:50.462Z,12.92
2022-11-10T01:43:23.308Z,12.92
2022-11-10T01:46:00.836Z,12.90
2022-11-10T01:48:38.203Z,12.89
2022-11-10T01:51:29.492Z,12.84
2022-11-10T01:54:12.708Z,12.82
2022-11-10T01:56:50.616Z,12.83
2022-11-10T01:59:32.529Z,12.79
2022-11-10T02:02:20.131Z,12.76
2022-11-10T02:04:52.927Z,12.76
2022-11-10T02:07:25.840Z,12.81
2022-11-10T02:09:57.876Z,12.83
2022-11-10T02:12:38.130Z,12.82
2022-11-10T02:15:15.774Z,12.80
2022-11-10T02:17:48.955Z,12.73
2022-11-10T02:20:22.313Z,12.80
2022-11-10T02:22:54.199Z,12.80
2022-11-10T02:25:32.432Z,12.79
2022-11-10T02:28:04.524Z,12.77
2022-11-10T02:30:36.510Z,12.79
2022-11-10T02:33:08.347Z,12.81
2022-11-10T02:35:40.240Z,12.77
2022-11-10T02:38:13.862Z,12.81
2022-11-10T02:40:45.791Z,12.83
2022-11-10T02:43:19.708Z,12.82
2022-11-10T02:45:51.846Z,12.83
2022-11-10T02:48:23.790Z,12.79
2022-11-10T02:50:55.701Z,12.79
2022-11-10T02:53:27.627Z,12.73
2022-11-10T02:55:59.670Z,12.75
2022-11-10T02:58:31.584Z,12.73
2022-11-10T03:01:07.354Z,12.69
2022-11-10T03:03:39.314Z,12.64
2022-11-10T03:06:11.268Z,12.62
2022-11-10T03:08:43.176Z,12.62
2022-11-10T03:11:15.056Z,12.59
2022-11-10T03:14:00.794Z,12.57
2022-11-10T03:16:33.189Z,12.54
2022-11-10T03:19:05.086Z,12.57
2022-11-10T03:21:37.676Z,12.55
2022-11-10T03:24:09.761Z,12.54
2022-11-10T03:26:41.703Z,12.56
2022-11-10T03:29:13.614Z,12.53
2022-11-10T03:31:45.486Z,12.51
2022-11-10T03:34:17.411Z,12.52
2022-11-10T03:36:49.327Z,12.52
2022-11-10T03:39:21.210Z,12.49
2022-11-10T03:41:53.097Z,12.40
2022-11-10T03:44:24.992Z,12.39
2022-11-10T03:46:56.990Z,12.37
2022-11-10T03:49:29.167Z,12.36
2022-11-10T03:52:01.179Z,12.33
2022-11-10T03:54:33.123Z,12.33
2022-11-10T03:57:04.989Z,12.32
2022-11-10T03:59:36.905Z,12.28
2022-11-10T04:02:08.833Z,12.26
2022-11-10T04:04:59.450Z,12.23
2022-11-10T04:07:50.103Z,12.23
2022-11-10T04:10:22.040Z,12.23
2022-11-10T04:13:12.594Z,12.22
2022-11-10T04:15:44.615Z,12.12
2022-11-10T04:18:24.463Z,12.18
2022-11-10T04:21:00.037Z,12.16
2022-11-10T04:23:36.466Z,12.14
2022-11-10T04:26:30.383Z,12.14
2022-11-10T04:29:05.683Z,12.13
2022-11-10T04:31:40.701Z,12.07
2022-11-10T04:34:15.342Z,12.14
2022-11-10T04:36:47.325Z,12.12
2022-11-10T04:39:19.250Z,12.13
2022-11-10T04:41:51.134Z,12.10
2022-11-10T04:44:23.025Z,12.09
2022-11-10T04:46:54.896Z,12.05
2022-11-10T04:49:26.919Z,11.93
2022-11-10T04:51:58.942Z,12.04
2022-11-10T04:54:30.889Z,12.10
2022-11-10T04:57:02.871Z,12.04
2022-11-10T04:59:34.769Z,12.07
2022-11-10T05:02:06.660Z,12.00
2022-11-10T05:04:38.500Z,12.12
2022-11-10T05:07:10.525Z,12.12
2022-11-10T05:09:42.421Z,12.12
2022-11-10T05:12:17.382Z,12.10
2022-11-10T05:14:53.189Z,12.10
2022-11-10T05:17:25.127Z,12.10
2022-11-10T05:19:57.044Z,12.09
2022-11-10T05:22:29.073Z,12.08
2022-11-10T05:25:01.014Z,12.07
2022-11-10T05:27:32.907Z,11.88
2022-11-10T05:30:05.592Z,12.07
2022-11-10T05:32:38.426Z,12.09
2022-11-10T05:35:10.361Z,12.05
2022-11-10T05:37:42.343Z,11.99
2022-11-10T05:40:14.516Z,11.97
2022-11-10T05:42:52.813Z,11.97
2022-11-10T05:45:27.988Z,11.90
2022-11-10T05:47:59.897Z,11.90
2022-11-10T05:50:32.895Z,11.83
2022-11-10T05:53:05.095Z,11.84
2022-11-10T05:55:37.083Z,11.72
2022-11-10T05:58:09.841Z,11.75
2022-11-10T06:00:41.756Z,11.86
2022-11-10T06:03:17.332Z,11.90
2022-11-10T06:05:49.399Z,11.81
2022-11-10T06:08:21.316Z,11.92
2022-11-10T06:10:54.623Z,11.86
2022-11-10T06:13:26.652Z,11.83
2022-11-10T06:15:58.526Z,11.77
2022-11-10T06:18:30.442Z,11.83
2022-11-10T06:21:02.367Z,11.80
2022-11-10T06:23:34.277Z,11.83
2022-11-10T06:26:06.161Z,11.80
2022-11-10T06:28:38.136Z,11.81
2022-11-10T06:31:10.081Z,11.66
2022-11-10T06:33:42.863Z,11.73
2022-11-10T06:36:15.443Z,11.73
2022-11-10T06:38:47.381Z,11.68
2022-11-10T06:41:24.186Z,11.72
2022-11-10T06:43:57.386Z,11.68
2022-11-10T06:46:29.415Z,11.66
2022-11-10T06:49:01.490Z,11.67
2022-11-10T06:51:33.585Z,11.68
2022-11-10T06:54:05.866Z,11.69
2022-11-10T06:56:38.208Z,11.65
2022-11-10T06:59:10.495Z,11.53
2022-11-10T07:01:42.433Z,11.70
2022-11-10T07:04:20.391Z,11.71
2022-11-10T07:06:53.103Z,11.55
2022-11-10T07:09:25.041Z,11.68
2022-11-10T07:11:57.498Z,11.69
2022-11-10T07:14:29.481Z,11.68
2022-11-10T07:17:01.401Z,11.74
2022-11-10T07:19:33.563Z,11.69
2022-11-10T07:22:10.751Z,11.76
2022-11-10T07:24:43.250Z,11.80
2022-11-10T07:27:15.178Z,11.73
2022-11-10T07:29:47.133Z,11.80
2022-11-10T07:32:19.062Z,11.82
2022-11-10T07:34:51.394Z,11.91
2022-11-10T07:37:24.032Z,11.96
2022-11-10T07:39:55.950Z,11.96
2022-11-10T07:42:27.824Z,11.99
2022-11-10T07:44:59.779Z,12.01
2022-11-10T07:47:31.636Z,12.00
2022-11-10T07:50:04.105Z,12.01
2022-11-10T07:52:36.074Z,12.05
2022-11-10T07:55:08.384Z,12.08
2022-11-10T07:57:40.284Z,12.13
2022-11-10T08:00:12.972Z,12.17
2022-11-10T08:02:44.951Z,12.17
2022-11-10T08:05:16.962Z,12.28
2022-11-10T08:07:48.944Z,12.37
2022-11-10T08:10:20.942Z,12.44
2022-11-10T08:12:58.068Z,12.53
2022-11-10T08:15:32.211Z,12.62
2022-11-10T08:18:16.664Z,12.69
2022-11-10T08:20:49.135Z,12.80
2022-11-10T08:23:21.519Z,12.89
2022-11-10T08:25:53.623Z,13.00
2022-11-10T08:28:26.381Z,12.92
2022-11-10T08:31:02.849Z,13.11
2022-11-10T08:33:37.209Z,13.18
2022-11-10T08:36:09.744Z,13.27
2022-11-10T08:38:41.954Z,13.36
2022-11-10T08:41:13.884Z,13.47
2022-11-10T08:43:45.798Z,13.60
2022-11-10T08:46:17.667Z,13.55
2022-11-10T08:48:49.592Z,13.75
2022-11-10T08:51:22.322Z,13.76
2022-11-10T08:53:54.242Z,13.83
2022-11-10T08:56:26.105Z,13.82
2022-11-10T08:58:58.005Z,13.84
2022-11-10T09:01:29.889Z,13.73
2022-11-10T09:04:01.810Z,13.80
2022-11-10T09:06:33.774Z,13.76
2022-11-10T09:09:05.709Z,13.71
2022-11-10T09:11:37.571Z,13.70
2022-11-10T09:14:12.678Z,13.77
2022-11-10T09:16:44.757Z,13.80
2022-11-10T09:19:19.853Z,13.91
2022-11-10T09:21:52.249Z,14.10
2022-11-10T09:24:30.062Z,14.28
2022-11-10T09:27:03.232Z,14.52
2022-11-10T09:29:35.124Z,14.67
2022-11-10T09:32:07.099Z,14.75
2022-11-10T09:34:39.036Z,15.01
2022-11-10T09:37:11.198Z,15.11
2022-11-10T09:39:43.108Z,15.30
2022-11-10T09:42:38.597Z,15.42
2022-11-10T09:45:19.838Z,15.57
2022-11-10T09:48:05.003Z,15.73
2022-11-10T09:50:54.044Z,15.95
2022-11-10T09:53:37.975Z,16.14
2022-11-10T09:56:21.595Z,16.23
2022-11-10T09:58:53.583Z,16.26
2022-11-10T10:01:54.681Z,16.37
2022-11-10T10:04:38.655Z,16.43
2022-11-10T10:07:54.610Z,16.46
2022-11-10T10:10:51.526Z,16.56
2022-11-10T10:13:45.522Z,16.76
2022-11-10T10:17:08.821Z,16.87
2022-11-10T10:19:46.363Z,17.01
2022-11-10T10:22:30.296Z,16.94
2022-11-10T10:25:11.639Z,16.98
2022-11-10T10:27:50.676Z,17.04
2022-11-10T10:30:22.768Z,17.15
2022-11-10T10:33:13.316Z,17.28
2022-11-10T10:35:49.264Z,17.40
2022-11-10T10:38:35.690Z,17.63
2022-11-10T10:41:24.234Z,17.63
2022-11-10T10:44:00.646Z,17.65
2022-11-10T10:46:55.813Z,17.55
2022-11-10T10:49:31.169Z,17.70
2022-11-10T10:52:16.434Z,17.80
2022-11-10T10:55:01.355Z,18.05
2022-11-10T10:57:33.278Z,18.12
2022-11-10T11:00:32.041Z,18.11
2022-11-10T11:03:24.910Z,18.24
2022-11-10T11:06:07.137Z,18.29
2022-11-10T11:08:39.140Z,18.42
2022-11-10T11:11:12.624Z,18.50
2022-11-10T11:13:44.559Z,18.50
2022-11-10T11:16:16.692Z,18.44
2022-11-10T11:18:48.629Z,18.41
2022-11-10T11:21:37.632Z,18.26
2022-11-10T11:24:29.788Z,18.36
2022-11-10T11:27:18.786Z,18.42
2022-11-10T11:30:05.857Z,18.49
2022-11-10T11:32:54.913Z,18.24
2022-11-10T11:35:39.850Z,18.18
2022-11-10T11:38:27.435Z,18.17
2022-11-10T11:41:37.343Z,18.44
2022-11-10T11:44:27.325Z,18.52
2022-11-10T11:47:01.843Z,18.42
2022-11-10T11:50:09.990Z,18.07
2022-11-10T11:53:16.053Z,17.84
2022-11-10T11:56:05.969Z,17.65
2022-11-10T11:59:14.026Z,17.57
2022-11-10T12:02:32.830Z,17.46
2022-11-10T12:05:24.907Z,17.41
2022-11-10T12:08:22.687Z,17.33
2022-11-10T12:11:24.329Z,17.44
2022-11-10T12:14:22.813Z,17.48
2022-11-10T12:17:32.001Z,17.57
2022-11-10T12:20:42.987Z,17.79
2022-11-10T12:23:35.944Z,17.99
2022-11-10T12:26:41.262Z,18.15
2022-11-10T12:29:29.618Z,18.31
2022-11-10T12:32:27.675Z,18.33
2022-11-10T12:35:16.013Z,18.46
2022-11-10T12:38:01.634Z,18.47
2022-11-10T12:40:42.050Z,18.60
2022-11-10T12:43:34.366Z,18.63
2022-11-10T12:46:12.206Z,18.82
2022-11-10T12:49:06.012Z,18.72
2022-11-10T12:52:16.302Z,18.67
2022-11-10T12:54:48.500Z,18.87
2022-11-10T12:57:26.634Z,19.02
2022-11-10T13:00:28.385Z,19.03
2022-11-10T13:03:00.809Z,19.07
2022-11-10T13:05:55.384Z,19.20
2022-11-10T13:08:35.317Z,19.34
2022-11-10T13:11:25.829Z,19.36
2022-11-10T13:14:05.157Z,19.39
2022-11-10T13:16:42.538Z,19.40
2022-11-10T13:19:23.703Z,19.24
2022-11-10T13:22:01.306Z,19.06
2022-11-10T13:24:44.305Z,18.88
2022-11-10T13:27:46.506Z,18.77
2022-11-10T13:30:45.493Z,18.83
2022-11-10T13:33:26.271Z,18.99
2022-11-10T13:35:58.786Z,19.04
2022-11-10T13:38:35.959Z,18.97
2022-11-10T13:41:17.128Z,19.28
2022-11-10T13:43:55.671Z,19.43
2022-11-10T13:46:44.425Z,19.34
2022-11-10T13:49:40.875Z,19.15
2022-11-10T13:52:36.863Z,19.11
2022-11-10T13:55:27.530Z,19.06
2022-11-10T13:58:09.009Z,18.97
2022-11-10T14:00:41.043Z,18.96
2022-11-10T14:03:54.554Z,18.81
2022-11-10T14:06:52.993Z,18.75
2022-11-10T14:09:51.607Z,18.70
2022-11-10T14:12:50.820Z,18.68
2022-11-10T14:15:50.579Z,18.59
2022-11-10T14:18:28.353Z,18.60
2022-11-10T14:21:02.239Z,18.50
2022-11-10T14:23:45.840Z,18.49
2022-11-10T14:26:52.782Z,18.42
2022-11-10T14:29:39.269Z,18.42
2022-11-10T14:32:24.792Z,18.35
2022-11-10T14:34:57.788Z,18.32
2022-11-10T14:37:30.477Z,18.19
2022-11-10T14:40:03.273Z,17.95
2022-11-10T14:42:35.280Z,17.80
2022-11-10T14:45:24.371Z,17.86
2022-11-10T14:47:59.533Z,17.77
2022-11-10T14:50:35.321Z,17.81
2022-11-10T14:53:29.412Z,17.77
2022-11-10T14:56:05.657Z,17.78
2022-11-10T14:58:41.665Z,18.06
2022-11-10T15:01:38.884Z,18.28
2022-11-10T15:04:14.882Z,18.43
2022-11-10T15:06:49.828Z,18.49
2022-11-10T15:09:32.762Z,18.38
2022-11-10T15:12:19.748Z,18.28
2022-11-10T15:15:00.564Z,18.09
2022-11-10T15:17:51.458Z,17.90
2022-11-10T15:20:33.605Z,17.78
2022-11-10T15:23:29.181Z,17.69
2022-11-10T15:26:06.459Z,17.64
2022-11-10T15:28:38.414Z,17.53
2022-11-10T15:31:20.984Z,17.44
2022-11-10T15:33:57.575Z,17.38
2022-11-10T15:36:39.580Z,17.28
2022-11-10T15:39:20.117Z,17.24
2022-11-10T15:41:58.453Z,17.21
2022-11-10T15:44:30.329Z,17.18
2022-11-10T15:47:02.455Z,17.14
2022-11-10T15:49:38.090Z,17.11
2022-11-10T15:52:22.714Z,17.07
2022-11-10T15:54:54.714Z,17.02
2022-11-10T15:57:26.635Z,16.96
2022-11-10T15:59:58.630Z,16.88
2022-11-10T16:02:30.828Z,16.83
2022-11-10T16:05:11.707Z,16.77
2022-11-10T16:07:43.594Z,16.73
2022-11-10T16:10:15.627Z,16.69
2022-11-10T16:12:47.584Z,16.61
2022-11-10T16:15:21.438Z,16.58
2022-11-10T16:17:53.421Z,16.87
2022-11-10T16:20:25.321Z,16.68
2022-11-10T16:22:57.249Z,16.59
2022-11-10T16:25:29.212Z,16.56
2022-11-10T16:28:04.454Z,16.45
2022-11-10T16:30:36.551Z,16.43
2022-11-10T16:33:18.729Z,16.40
2022-11-10T16:35:53.800Z,16.40
2022-11-10T16:38:31.996Z,16.39
2022-11-10T16:41:04.497Z,16.35
2022-11-10T16:43:36.812Z,16.26
2022-11-10T16:46:22.394Z,16.32
2022-11-10T16:48:58.644Z,16.21
2022-11-10T16:51:48.537Z,16.28
2022-11-10T16:54:20.992Z,16.28
2022-11-10T16:56:52.851Z,16.28
2022-11-10T16:59:25.058Z,16.26
2022-11-10T17:01:57.258Z,16.25
2022-11-10T17:04:29.613Z,16.19
2022-11-10T17:07:01.659Z,16.16
2022-11-10T17:09:33.613Z,16.08
2022-11-10T17:12:05.721Z,16.15
2022-11-10T17:14:37.610Z,16.11
2022-11-10T17:17:18.531Z,16.02
2022-11-10T17:19:51.917Z,16.02
2022-11-10T17:22:25.715Z,15.94
2022-11-10T17:24:57.837Z,15.98
2022-11-10T17:27:33.937Z,15.89
2022-11-10T17:30:11.228Z,15.89
2022-11-10T17:33:04.061Z,15.85
2022-11-10T17:35:54.075Z,15.77
2022-11-10T17:38:32.699Z,15.77
2022-11-10T17:41:04.720Z,15.73
2022-11-10T17:43:37.880Z,15.69
2022-11-10T17:46:16.243Z,15.61
2022-11-10T17:48:49.687Z,15.66
2022-11-10T17:51:23.361Z,15.57
2022-11-10T17:53:55.836Z,15.65
2022-11-10T17:56:27.757Z,15.64
2022-11-10T17:58:59.975Z,15.57
2022-11-10T18:01:31.982Z,15.61
2022-11-10T18:04:04.136Z,15.58
2022-11-10T18:06:36.169Z,15.52
2022-11-10T18:09:08.146Z,15.51
2022-11-10T18:11:40.413Z,15.44
2022-11-10T18:14:12.405Z,15.46
2022-11-10T18:16:44.313Z,15.44
2022-11-10T18:19:16.317Z,15.47
2022-11-10T18:21:48.240Z,15.44
2022-11-10T18:24:20.159Z,15.38
2022-11-10T18:26:52.103Z,15.21
2022-11-10T18:29:24.001Z,15.30
2022-11-10T18:31:55.915Z,15.28
2022-11-10T18:34:27.847Z,15.25
2022-11-10T18:36:59.795Z,15.16
2022-11-10T18:39:31.703Z,15.21
2022-11-10T18:42:04.276Z,15.14
2022-11-10T18:44:36.917Z,15.10
2022-11-10T18:47:12.987Z,15.06
2022-11-10T18:49:44.907Z,15.05
2022-11-10T18:52:16.871Z,15.02
2022-11-10T18:54:48.788Z,14.98
2022-11-10T18:57:20.995Z,14.95
2022-11-10T18:59:52.940Z,14.93
2022-11-10T19:02:24.927Z,14.91
2022-11-10T19:04:57.222Z,14.86
2022-11-10T19:07:30.386Z,14.81
2022-11-10T19:10:02.453Z,14.73
2022-11-10T19:12:34.712Z,14.66
2022-11-10T19:15:08.145Z,14.60
2022-11-10T19:17:40.082Z,14.58
2022-11-10T19:20:14.675Z,14.53
2022-11-10T19:22:46.670Z,14.51
2022-11-10T19:25:18.565Z,14.51
2022-11-10T19:27:50.449Z,14.50
2022-11-10T19:30:22.478Z,14.46
2022-11-10T19:32:54.365Z,14.40
2022-11-10T19:35:26.370Z,14.35
2022-11-10T19:37:58.375Z,14.31
2022-11-10T19:40:30.534Z,14.31
2022-11-10T19:43:02.603Z,14.29
2022-11-10T19:45:35.073Z,14.24
2022-11-10T19:48:07.030Z,14.20
2022-11-10T19:50:39.020Z,14.22
2022-11-10T19:53:11.124Z,14.24
2022-11-10T19:55:43.131Z,14.22
2022-11-10T19:58:15.231Z,14.15
2022-11-10T20:00:48.557Z,14.13
2022-11-10T20:03:20.944Z,14.12
2022-11-10T20:06:11.969Z,14.09
2022-11-10T20:08:44.893Z,14.08
2022-11-10T20:11:23.854Z,13.92
2022-11-10T20:14:03.773Z,14.07
2022-11-10T20:16:35.708Z,14.00
2022-11-10T20:19:07.601Z,14.08
2022-11-10T20:21:39.538Z,14.05
2022-11-10T20:24:11.545Z,14.03
2022-11-10T20:26:43.516Z,13.87
2022-11-10T20:29:15.474Z,13.87
2022-11-10T20:31:47.436Z,13.92
2022-11-10T20:34:19.390Z,13.82
2022-11-10T20:36:51.253Z,13.65
2022-11-10T20:39:23.137Z,13.76
2022-11-10T20:41:55.161Z,13.81
2022-11-10T20:44:27.188Z,13.79
2022-11-10T20:46:59.208Z,13.77
2022-11-10T20:49:31.299Z,13.67
2022-11-10T20:52:03.401Z,13.71
2022-11-10T20:54:35.329Z,13.75
2022-11-10T20:57:07.297Z,13.73
2022-11-10T20:59:39.236Z,13.68
2022-11-10T21:02:13.009Z,13.66
2022-11-10T21:04:45.006Z,13.66
2022-11-10T21:07:17.087Z,13.63
2022-11-10T21:09:49.064Z,13.62
2022-11-10T21:12:39.324Z,13.62
2022-11-10T21:15:11.289Z,13.51
2022-11-10T21:17:44.309Z,13.62
2022-11-10T21:20:16.510Z,13.45
2022-11-10T21:22:48.506Z,13.61
2022-11-10T21:25:20.597Z,13.57
2022-11-10T21:27:52.504Z,13.49
2022-11-10T21:30:24.374Z,13.55
2022-11-10T21:32:56.345Z,13.55
2022-11-10T21:35:28.303Z,13.47
2022-11-10T21:38:00.220Z,13.47
2022-11-10T21:40:33.430Z,13.47
2022-11-10T21:43:05.393Z,13.49
2022-11-10T21:45:37.406Z,13.47
2022-11-10T21:48:09.309Z,13.50
2022-11-10T21:50:41.210Z,13.47
2022-11-10T21:53:13.284Z,13.38
2022-11-10T21:55:45.199Z,13.32
2022-11-10T21:58:17.103Z,13.26
2022-11-10T22:00:49.228Z,13.26
2022-11-10T22:03:21.392Z,13.22
2022-11-10T22:05:53.586Z,13.16
2022-11-10T22:08:26.749Z,13.12
2022-11-10T22:11:17.707Z,13.14
2022-11-10T22:14:08.286Z,13.12
2022-11-10T22:17:10.038Z,13.10
2022-11-10T22:19:42.723Z,13.09
2022-11-10T22:22:14.887Z,13.14
2022-11-10T22:24:46.751Z,13.14
2022-11-10T22:27:18.647Z,13.12
2022-11-10T22:29:50.511Z,13.12
2022-11-10T22:32:22.462Z,13.11
2022-11-10T22:34:54.316Z,13.10
2022-11-10T22:37:33.029Z,12.98
2022-11-10T22:40:24.517Z,13.10
2022-11-10T22:43:14.671Z,13.08
2022-11-10T22:45:46.708Z,13.04
2022-11-10T22:48:27.367Z,13.04
2022-11-10T22:51:00.454Z,13.04
2022-11-10T22:53:37.845Z,13.06
2022-11-10T22:56:10.396Z,13.03
2022-11-10T22:58:42.326Z,13.05
2022-11-10T23:01:14.721Z,13.04
2022-11-10T23:03:46.719Z,13.03
2022-11-10T23:06:19.155Z,13.02
2022-11-10T23:08:51.371Z,12.99
2022-11-10T23:11:27.403Z,12.95
2022-11-10T23:13:59.341Z,12.87
2022-11-10T23:16:34.869Z,12.91
2022-11-10T23:19:06.774Z,12.87
2022-11-10T23:21:38.713Z,12.89
2022-11-10T23:24:10.688Z,12.91
2022-11-10T23:26:42.610Z,12.93
2022-11-10T23:29:14.594Z,12.89
2022-11-10T23:31:46.491Z,12.88
2022-11-10T23:34:18.420Z,12.83
2022-11-10T23:36:50.255Z,12.78
2022-11-10T23:39:22.156Z,12.78
2022-11-10T23:41:54.042Z,12.74
2022-11-10T23:44:25.927Z,12.69
2022-11-10T23:46:57.845Z,12.69
2022-11-10T23:49:29.767Z,12.69
2022-11-10T23:52:01.649Z,12.68
2022-11-10T23:54:33.617Z,12.66
2022-11-10T23:57:05.786Z,12.58
2022-11-10T23:59:37.654Z,12.62
